sensor_id;sensor_type;location;lat;lon;timestamp;P1;durP1;ratioP1;P2;durP2;ratioP2
22250;SDS011;59348;52.158;5.588;2023-04-09T00:01:44;46.15;;;28.58;;
22250;SDS011;59348;52.158;5.588;2023-04-09T00:04:11;42.65;;;28.75;;
22250;SDS011;59348;52.158;5.588;2023-04-09T00:06:38;45.30;;;28.98;;
22250;SDS011;59348;52.158;5.588;2023-04-09T00:09:06;48.45;;;29.40;;
22250;SDS011;59348;52.158;5.588;2023-04-09T00:11:33;43.50;;;28.65;;
22250;SDS011;59348;52.158;5.588;2023-04-09T00:14:00;44.85;;;29.40;;
22250;SDS011;59348;52.158;5.588;2023-04-09T00:16:28;43.45;;;28.98;;
22250;SDS011;59348;52.158;5.588;2023-04-09T00:18:56;45.20;;;28.73;;
22250;SDS011;59348;52.158;5.588;2023-04-09T00:21:23;43.95;;;28.63;;
22250;SDS011;59348;52.158;5.588;2023-04-09T00:23:51;43.22;;;29.15;;
22250;SDS011;59348;52.158;5.588;2023-04-09T00:26:18;44.67;;;30.08;;
22250;SDS011;59348;52.158;5.588;2023-04-09T00:28:45;46.08;;;29.60;;
22250;SDS011;59348;52.158;5.588;2023-04-09T00:31:12;43.20;;;28.65;;
22250;SDS011;59348;52.158;5.588;2023-04-09T00:33:40;47.60;;;29.67;;
22250;SDS011;59348;52.158;5.588;2023-04-09T00:36:08;45.53;;;29.77;;
22250;SDS011;59348;52.158;5.588;2023-04-09T00:38:36;41.55;;;28.33;;
22250;SDS011;59348;52.158;5.588;2023-04-09T00:41:03;45.08;;;29.30;;
22250;SDS011;59348;52.158;5.588;2023-04-09T00:43:30;47.70;;;29.65;;
22250;SDS011;59348;52.158;5.588;2023-04-09T00:45:58;45.70;;;29.10;;
22250;SDS011;59348;52.158;5.588;2023-04-09T00:48:26;45.60;;;29.90;;
22250;SDS011;59348;52.158;5.588;2023-04-09T00:50:53;44.58;;;29.58;;
22250;SDS011;59348;52.158;5.588;2023-04-09T00:53:22;45.15;;;29.85;;
22250;SDS011;59348;52.158;5.588;2023-04-09T00:55:49;46.20;;;28.52;;
22250;SDS011;59348;52.158;5.588;2023-04-09T00:58:16;48.83;;;29.20;;
22250;SDS011;59348;52.158;5.588;2023-04-09T01:00:44;43.95;;;28.90;;
22250;SDS011;59348;52.158;5.588;2023-04-09T01:03:11;44.92;;;29.80;;
22250;SDS011;59348;52.158;5.588;2023-04-09T01:05:40;44.63;;;30.42;;
22250;SDS011;59348;52.158;5.588;2023-04-09T01:08:11;45.35;;;29.48;;
22250;SDS011;59348;52.158;5.588;2023-04-09T01:10:44;47.35;;;29.25;;
22250;SDS011;59348;52.158;5.588;2023-04-09T01:13:15;46.13;;;29.77;;
22250;SDS011;59348;52.158;5.588;2023-04-09T01:15:45;46.55;;;28.67;;
22250;SDS011;59348;52.158;5.588;2023-04-09T01:18:14;43.03;;;28.58;;
22250;SDS011;59348;52.158;5.588;2023-04-09T01:20:46;43.63;;;29.42;;
22250;SDS011;59348;52.158;5.588;2023-04-09T01:23:16;48.75;;;29.40;;
22250;SDS011;59348;52.158;5.588;2023-04-09T01:25:52;48.50;;;30.08;;
22250;SDS011;59348;52.158;5.588;2023-04-09T01:28:24;47.80;;;30.95;;
22250;SDS011;59348;52.158;5.588;2023-04-09T01:33:39;47.35;;;30.13;;
22250;SDS011;59348;52.158;5.588;2023-04-09T01:36:07;47.60;;;30.25;;
22250;SDS011;59348;52.158;5.588;2023-04-09T01:38:35;44.50;;;29.25;;
22250;SDS011;59348;52.158;5.588;2023-04-09T01:41:03;46.70;;;29.85;;
22250;SDS011;59348;52.158;5.588;2023-04-09T01:43:32;44.85;;;29.67;;
22250;SDS011;59348;52.158;5.588;2023-04-09T01:45:59;46.15;;;29.33;;
22250;SDS011;59348;52.158;5.588;2023-04-09T01:48:27;46.35;;;29.58;;
22250;SDS011;59348;52.158;5.588;2023-04-09T01:50:55;47.95;;;30.05;;
22250;SDS011;59348;52.158;5.588;2023-04-09T01:53:22;47.33;;;30.02;;
22250;SDS011;59348;52.158;5.588;2023-04-09T01:55:52;44.35;;;29.42;;
22250;SDS011;59348;52.158;5.588;2023-04-09T01:58:20;44.60;;;29.25;;
22250;SDS011;59348;52.158;5.588;2023-04-09T02:00:49;43.30;;;29.00;;
22250;SDS011;59348;52.158;5.588;2023-04-09T02:03:20;41.70;;;28.25;;
22250;SDS011;59348;52.158;5.588;2023-04-09T02:05:50;44.65;;;29.50;;
22250;SDS011;59348;52.158;5.588;2023-04-09T02:08:19;43.13;;;28.42;;
22250;SDS011;59348;52.158;5.588;2023-04-09T02:10:48;42.67;;;28.67;;
22250;SDS011;59348;52.158;5.588;2023-04-09T02:13:18;46.30;;;29.13;;
22250;SDS011;59348;52.158;5.588;2023-04-09T02:15:45;46.33;;;29.55;;
22250;SDS011;59348;52.158;5.588;2023-04-09T02:18:21;46.05;;;28.73;;
22250;SDS011;59348;52.158;5.588;2023-04-09T02:20:49;47.70;;;30.00;;
22250;SDS011;59348;52.158;5.588;2023-04-09T02:23:16;46.17;;;29.65;;
22250;SDS011;59348;52.158;5.588;2023-04-09T02:25:43;45.30;;;29.17;;
22250;SDS011;59348;52.158;5.588;2023-04-09T02:28:10;43.67;;;28.67;;
22250;SDS011;59348;52.158;5.588;2023-04-09T02:30:38;40.58;;;27.42;;
22250;SDS011;59348;52.158;5.588;2023-04-09T02:33:05;43.75;;;28.27;;
22250;SDS011;59348;52.158;5.588;2023-04-09T02:35:34;42.65;;;27.98;;
22250;SDS011;59348;52.158;5.588;2023-04-09T02:38:01;41.67;;;27.50;;
22250;SDS011;59348;52.158;5.588;2023-04-09T02:40:29;44.30;;;28.98;;
22250;SDS011;59348;52.158;5.588;2023-04-09T02:42:56;40.53;;;27.35;;
22250;SDS011;59348;52.158;5.588;2023-04-09T02:45:23;46.22;;;28.02;;
22250;SDS011;59348;52.158;5.588;2023-04-09T02:47:50;42.58;;;28.25;;
22250;SDS011;59348;52.158;5.588;2023-04-09T02:50:18;45.30;;;28.20;;
22250;SDS011;59348;52.158;5.588;2023-04-09T02:52:46;40.78;;;28.15;;
22250;SDS011;59348;52.158;5.588;2023-04-09T02:55:13;38.42;;;26.05;;
22250;SDS011;59348;52.158;5.588;2023-04-09T02:57:41;45.78;;;28.40;;
22250;SDS011;59348;52.158;5.588;2023-04-09T03:00:09;42.08;;;28.13;;
22250;SDS011;59348;52.158;5.588;2023-04-09T03:02:36;41.15;;;28.45;;
22250;SDS011;59348;52.158;5.588;2023-04-09T03:05:03;41.58;;;28.52;;
22250;SDS011;59348;52.158;5.588;2023-04-09T03:07:31;38.00;;;26.40;;
22250;SDS011;59348;52.158;5.588;2023-04-09T03:09:59;40.75;;;27.13;;
22250;SDS011;59348;52.158;5.588;2023-04-09T03:12:26;38.65;;;27.65;;
22250;SDS011;59348;52.158;5.588;2023-04-09T03:14:54;44.13;;;27.95;;
22250;SDS011;59348;52.158;5.588;2023-04-09T03:17:21;41.38;;;27.80;;
22250;SDS011;59348;52.158;5.588;2023-04-09T03:19:49;42.53;;;27.15;;
22250;SDS011;59348;52.158;5.588;2023-04-09T03:22:17;41.65;;;27.73;;
22250;SDS011;59348;52.158;5.588;2023-04-09T03:24:44;41.88;;;27.13;;
22250;SDS011;59348;52.158;5.588;2023-04-09T03:27:13;40.88;;;28.58;;
22250;SDS011;59348;52.158;5.588;2023-04-09T03:29:40;40.30;;;27.42;;
22250;SDS011;59348;52.158;5.588;2023-04-09T03:32:07;46.25;;;28.15;;
22250;SDS011;59348;52.158;5.588;2023-04-09T03:34:34;42.08;;;28.45;;
22250;SDS011;59348;52.158;5.588;2023-04-09T03:37:01;40.70;;;26.80;;
22250;SDS011;59348;52.158;5.588;2023-04-09T03:39:29;37.58;;;26.27;;
22250;SDS011;59348;52.158;5.588;2023-04-09T03:41:56;40.10;;;27.42;;
22250;SDS011;59348;52.158;5.588;2023-04-09T03:44:24;37.00;;;26.77;;
22250;SDS011;59348;52.158;5.588;2023-04-09T03:46:52;41.67;;;27.90;;
22250;SDS011;59348;52.158;5.588;2023-04-09T03:49:19;39.42;;;27.27;;
22250;SDS011;59348;52.158;5.588;2023-04-09T03:51:46;40.63;;;27.45;;
22250;SDS011;59348;52.158;5.588;2023-04-09T03:54:13;39.70;;;26.80;;
22250;SDS011;59348;52.158;5.588;2023-04-09T03:56:40;42.47;;;27.85;;
22250;SDS011;59348;52.158;5.588;2023-04-09T03:59:08;43.28;;;28.15;;
22250;SDS011;59348;52.158;5.588;2023-04-09T04:01:36;41.08;;;26.65;;
22250;SDS011;59348;52.158;5.588;2023-04-09T04:04:03;39.17;;;25.92;;
22250;SDS011;59348;52.158;5.588;2023-04-09T04:06:32;35.28;;;25.48;;
22250;SDS011;59348;52.158;5.588;2023-04-09T04:08:59;35.40;;;24.65;;
22250;SDS011;59348;52.158;5.588;2023-04-09T04:11:27;39.08;;;24.67;;
22250;SDS011;59348;52.158;5.588;2023-04-09T04:13:54;38.90;;;26.73;;
22250;SDS011;59348;52.158;5.588;2023-04-09T04:16:21;37.47;;;25.98;;
22250;SDS011;59348;52.158;5.588;2023-04-09T04:18:50;35.05;;;25.17;;
22250;SDS011;59348;52.158;5.588;2023-04-09T04:21:17;44.47;;;26.58;;
22250;SDS011;59348;52.158;5.588;2023-04-09T04:23:44;41.28;;;27.73;;
22250;SDS011;59348;52.158;5.588;2023-04-09T04:26:11;37.50;;;25.80;;
22250;SDS011;59348;52.158;5.588;2023-04-09T04:28:39;41.38;;;28.00;;
22250;SDS011;59348;52.158;5.588;2023-04-09T04:31:06;38.25;;;27.35;;
22250;SDS011;59348;52.158;5.588;2023-04-09T04:33:35;37.97;;;26.15;;
22250;SDS011;59348;52.158;5.588;2023-04-09T04:36:04;41.58;;;27.55;;
22250;SDS011;59348;52.158;5.588;2023-04-09T04:38:31;36.92;;;25.95;;
22250;SDS011;59348;52.158;5.588;2023-04-09T04:40:59;40.50;;;26.45;;
22250;SDS011;59348;52.158;5.588;2023-04-09T04:43:26;38.05;;;26.15;;
22250;SDS011;59348;52.158;5.588;2023-04-09T04:45:53;38.70;;;26.15;;
22250;SDS011;59348;52.158;5.588;2023-04-09T04:48:21;38.40;;;26.42;;
22250;SDS011;59348;52.158;5.588;2023-04-09T04:50:54;37.38;;;25.48;;
22250;SDS011;59348;52.158;5.588;2023-04-09T04:53:23;35.55;;;25.10;;
22250;SDS011;59348;52.158;5.588;2023-04-09T04:55:51;36.65;;;24.95;;
22250;SDS011;59348;52.158;5.588;2023-04-09T04:58:18;39.40;;;26.25;;
22250;SDS011;59348;52.158;5.588;2023-04-09T05:00:45;41.05;;;26.23;;
22250;SDS011;59348;52.158;5.588;2023-04-09T05:03:12;38.35;;;25.02;;
22250;SDS011;59348;52.158;5.588;2023-04-09T05:05:40;38.13;;;25.83;;
22250;SDS011;59348;52.158;5.588;2023-04-09T05:08:07;38.80;;;25.10;;
22250;SDS011;59348;52.158;5.588;2023-04-09T05:10:35;36.22;;;25.13;;
22250;SDS011;59348;52.158;5.588;2023-04-09T05:13:02;38.78;;;25.13;;
22250;SDS011;59348;52.158;5.588;2023-04-09T05:15:30;37.17;;;24.75;;
22250;SDS011;59348;52.158;5.588;2023-04-09T05:17:57;38.67;;;26.45;;
22250;SDS011;59348;52.158;5.588;2023-04-09T05:20:26;42.92;;;27.83;;
22250;SDS011;59348;52.158;5.588;2023-04-09T05:22:53;41.10;;;27.25;;
22250;SDS011;59348;52.158;5.588;2023-04-09T05:25:20;41.92;;;28.67;;
22250;SDS011;59348;52.158;5.588;2023-04-09T05:27:49;39.72;;;27.35;;
22250;SDS011;59348;52.158;5.588;2023-04-09T05:30:16;41.95;;;28.60;;
22250;SDS011;59348;52.158;5.588;2023-04-09T05:32:43;40.28;;;27.60;;
22250;SDS011;59348;52.158;5.588;2023-04-09T05:35:11;42.05;;;28.98;;
22250;SDS011;59348;52.158;5.588;2023-04-09T05:37:38;41.13;;;27.92;;
22250;SDS011;59348;52.158;5.588;2023-04-09T05:40:06;43.38;;;28.98;;
22250;SDS011;59348;52.158;5.588;2023-04-09T05:42:33;43.95;;;29.42;;
22250;SDS011;59348;52.158;5.588;2023-04-09T05:45:02;44.58;;;30.27;;
22250;SDS011;59348;52.158;5.588;2023-04-09T05:47:29;43.00;;;29.35;;
22250;SDS011;59348;52.158;5.588;2023-04-09T05:49:57;45.00;;;29.35;;
22250;SDS011;59348;52.158;5.588;2023-04-09T05:52:24;41.67;;;28.02;;
22250;SDS011;59348;52.158;5.588;2023-04-09T05:54:52;46.95;;;29.50;;
22250;SDS011;59348;52.158;5.588;2023-04-09T05:57:19;42.38;;;27.98;;
22250;SDS011;59348;52.158;5.588;2023-04-09T05:59:47;40.45;;;28.23;;
22250;SDS011;59348;52.158;5.588;2023-04-09T06:02:15;41.63;;;28.05;;
22250;SDS011;59348;52.158;5.588;2023-04-09T06:04:43;43.33;;;27.63;;
22250;SDS011;59348;52.158;5.588;2023-04-09T06:07:10;41.47;;;26.83;;
22250;SDS011;59348;52.158;5.588;2023-04-09T06:09:37;39.78;;;27.00;;
22250;SDS011;59348;52.158;5.588;2023-04-09T06:12:04;41.75;;;27.02;;
22250;SDS011;59348;52.158;5.588;2023-04-09T06:14:32;39.60;;;26.10;;
22250;SDS011;59348;52.158;5.588;2023-04-09T06:16:59;37.72;;;25.45;;
22250;SDS011;59348;52.158;5.588;2023-04-09T06:19:28;38.50;;;26.10;;
22250;SDS011;59348;52.158;5.588;2023-04-09T06:21:55;38.55;;;26.73;;
22250;SDS011;59348;52.158;5.588;2023-04-09T06:24:22;35.58;;;26.08;;
22250;SDS011;59348;52.158;5.588;2023-04-09T06:26:50;39.20;;;24.35;;
22250;SDS011;59348;52.158;5.588;2023-04-09T06:29:17;33.42;;;23.92;;
22250;SDS011;59348;52.158;5.588;2023-04-09T06:31:44;34.33;;;23.55;;
22250;SDS011;59348;52.158;5.588;2023-04-09T06:34:11;36.28;;;24.75;;
22250;SDS011;59348;52.158;5.588;2023-04-09T06:36:40;33.13;;;22.05;;
22250;SDS011;59348;52.158;5.588;2023-04-09T06:39:08;28.73;;;21.67;;
22250;SDS011;59348;52.158;5.588;2023-04-09T06:41:35;32.05;;;21.38;;
22250;SDS011;59348;52.158;5.588;2023-04-09T06:44:02;30.90;;;21.30;;
22250;SDS011;59348;52.158;5.588;2023-04-09T06:46:29;32.33;;;21.83;;
22250;SDS011;59348;52.158;5.588;2023-04-09T06:48:57;31.80;;;21.88;;
22250;SDS011;59348;52.158;5.588;2023-04-09T06:51:24;34.00;;;22.42;;
22250;SDS011;59348;52.158;5.588;2023-04-09T06:53:53;35.38;;;21.88;;
22250;SDS011;59348;52.158;5.588;2023-04-09T06:56:20;29.58;;;21.13;;
22250;SDS011;59348;52.158;5.588;2023-04-09T06:58:47;34.35;;;22.67;;
22250;SDS011;59348;52.158;5.588;2023-04-09T07:01:14;30.20;;;20.85;;
22250;SDS011;59348;52.158;5.588;2023-04-09T07:03:42;31.73;;;21.17;;
22250;SDS011;59348;52.158;5.588;2023-04-09T07:06:09;33.15;;;20.92;;
22250;SDS011;59348;52.158;5.588;2023-04-09T07:08:36;28.73;;;20.25;;
22250;SDS011;59348;52.158;5.588;2023-04-09T07:11:05;29.00;;;20.10;;
22250;SDS011;59348;52.158;5.588;2023-04-09T07:13:32;32.63;;;20.85;;
22250;SDS011;59348;52.158;5.588;2023-04-09T07:15:59;32.30;;;20.25;;
22250;SDS011;59348;52.158;5.588;2023-04-09T07:18:27;29.35;;;20.88;;
22250;SDS011;59348;52.158;5.588;2023-04-09T07:20:54;32.65;;;21.27;;
22250;SDS011;59348;52.158;5.588;2023-04-09T07:23:21;28.75;;;20.95;;
22250;SDS011;59348;52.158;5.588;2023-04-09T07:25:48;30.45;;;21.52;;
22250;SDS011;59348;52.158;5.588;2023-04-09T07:28:17;30.95;;;20.55;;
22250;SDS011;59348;52.158;5.588;2023-04-09T07:30:44;31.65;;;20.92;;
22250;SDS011;59348;52.158;5.588;2023-04-09T07:33:11;31.63;;;20.88;;
22250;SDS011;59348;52.158;5.588;2023-04-09T07:35:38;31.95;;;21.70;;
22250;SDS011;59348;52.158;5.588;2023-04-09T07:38:06;31.80;;;21.08;;
22250;SDS011;59348;52.158;5.588;2023-04-09T07:40:33;28.25;;;20.40;;
22250;SDS011;59348;52.158;5.588;2023-04-09T07:43:00;29.95;;;20.00;;
22250;SDS011;59348;52.158;5.588;2023-04-09T07:45:29;32.47;;;21.08;;
22250;SDS011;59348;52.158;5.588;2023-04-09T07:47:56;29.83;;;20.65;;
22250;SDS011;59348;52.158;5.588;2023-04-09T07:50:23;31.45;;;20.38;;
22250;SDS011;59348;52.158;5.588;2023-04-09T07:52:51;32.63;;;21.35;;
22250;SDS011;59348;52.158;5.588;2023-04-09T07:55:18;33.35;;;20.90;;
22250;SDS011;59348;52.158;5.588;2023-04-09T07:57:45;28.98;;;21.33;;
22250;SDS011;59348;52.158;5.588;2023-04-09T08:00:13;32.10;;;20.88;;
22250;SDS011;59348;52.158;5.588;2023-04-09T08:02:42;30.92;;;20.58;;
22250;SDS011;59348;52.158;5.588;2023-04-09T08:05:09;31.30;;;22.27;;
22250;SDS011;59348;52.158;5.588;2023-04-09T08:07:36;30.90;;;21.08;;
22250;SDS011;59348;52.158;5.588;2023-04-09T08:10:05;31.35;;;21.85;;
22250;SDS011;59348;52.158;5.588;2023-04-09T08:12:32;29.25;;;20.58;;
22250;SDS011;59348;52.158;5.588;2023-04-09T08:14:59;30.50;;;22.10;;
22250;SDS011;59348;52.158;5.588;2023-04-09T08:17:28;30.30;;;21.63;;
22250;SDS011;59348;52.158;5.588;2023-04-09T08:19:57;34.30;;;22.20;;
22250;SDS011;59348;52.158;5.588;2023-04-09T08:22:24;32.03;;;22.45;;
22250;SDS011;59348;52.158;5.588;2023-04-09T08:24:51;30.63;;;21.58;;
22250;SDS011;59348;52.158;5.588;2023-04-09T08:27:18;29.63;;;21.80;;
22250;SDS011;59348;52.158;5.588;2023-04-09T08:29:46;31.73;;;22.45;;
22250;SDS011;59348;52.158;5.588;2023-04-09T08:32:14;31.20;;;21.38;;
22250;SDS011;59348;52.158;5.588;2023-04-09T08:34:41;29.75;;;21.20;;
22250;SDS011;59348;52.158;5.588;2023-04-09T08:37:09;30.65;;;21.45;;
22250;SDS011;59348;52.158;5.588;2023-04-09T08:39:36;31.02;;;21.35;;
22250;SDS011;59348;52.158;5.588;2023-04-09T08:42:04;29.75;;;21.45;;
22250;SDS011;59348;52.158;5.588;2023-04-09T08:44:32;33.67;;;22.10;;
22250;SDS011;59348;52.158;5.588;2023-04-09T08:47:00;34.53;;;22.45;;
22250;SDS011;59348;52.158;5.588;2023-04-09T08:49:27;28.92;;;21.42;;
22250;SDS011;59348;52.158;5.588;2023-04-09T08:51:54;29.52;;;21.52;;
22250;SDS011;59348;52.158;5.588;2023-04-09T08:54:23;31.88;;;22.30;;
22250;SDS011;59348;52.158;5.588;2023-04-09T08:56:50;26.83;;;19.98;;
22250;SDS011;59348;52.158;5.588;2023-04-09T08:59:18;27.50;;;19.73;;
22250;SDS011;59348;52.158;5.588;2023-04-09T09:01:45;28.63;;;20.08;;
22250;SDS011;59348;52.158;5.588;2023-04-09T09:04:18;29.73;;;20.30;;
22250;SDS011;59348;52.158;5.588;2023-04-09T09:06:45;26.63;;;19.58;;
22250;SDS011;59348;52.158;5.588;2023-04-09T09:09:13;26.92;;;19.38;;
22250;SDS011;59348;52.158;5.588;2023-04-09T09:11:42;24.80;;;18.88;;
22250;SDS011;59348;52.158;5.588;2023-04-09T09:14:10;24.63;;;17.90;;
22250;SDS011;59348;52.158;5.588;2023-04-09T09:16:38;24.38;;;17.00;;
22250;SDS011;59348;52.158;5.588;2023-04-09T09:19:06;22.77;;;16.45;;
22250;SDS011;59348;52.158;5.588;2023-04-09T09:21:34;25.05;;;17.60;;
22250;SDS011;59348;52.158;5.588;2023-04-09T09:24:03;22.05;;;17.13;;
22250;SDS011;59348;52.158;5.588;2023-04-09T09:26:43;22.73;;;16.75;;
22250;SDS011;59348;52.158;5.588;2023-04-09T09:29:10;20.55;;;16.17;;
22250;SDS011;59348;52.158;5.588;2023-04-09T09:31:44;22.00;;;16.98;;
22250;SDS011;59348;52.158;5.588;2023-04-09T09:34:13;22.67;;;16.08;;
22250;SDS011;59348;52.158;5.588;2023-04-09T09:36:40;21.55;;;16.10;;
22250;SDS011;59348;52.158;5.588;2023-04-09T09:39:08;22.30;;;16.17;;
22250;SDS011;59348;52.158;5.588;2023-04-09T09:41:37;22.10;;;16.23;;
22250;SDS011;59348;52.158;5.588;2023-04-09T09:44:06;21.33;;;16.45;;
22250;SDS011;59348;52.158;5.588;2023-04-09T09:46:34;22.52;;;17.33;;
22250;SDS011;59348;52.158;5.588;2023-04-09T09:49:02;22.73;;;16.75;;
22250;SDS011;59348;52.158;5.588;2023-04-09T09:51:30;21.77;;;16.50;;
22250;SDS011;59348;52.158;5.588;2023-04-09T09:53:58;21.60;;;16.17;;
22250;SDS011;59348;52.158;5.588;2023-04-09T09:56:28;19.77;;;15.40;;
22250;SDS011;59348;52.158;5.588;2023-04-09T09:59:00;21.60;;;16.30;;
22250;SDS011;59348;52.158;5.588;2023-04-09T10:01:30;22.23;;;16.02;;
22250;SDS011;59348;52.158;5.588;2023-04-09T10:03:58;20.13;;;15.40;;
22250;SDS011;59348;52.158;5.588;2023-04-09T10:06:26;22.38;;;15.70;;
22250;SDS011;59348;52.158;5.588;2023-04-09T10:08:55;20.77;;;15.82;;
22250;SDS011;59348;52.158;5.588;2023-04-09T10:11:23;22.00;;;15.68;;
22250;SDS011;59348;52.158;5.588;2023-04-09T10:13:52;21.65;;;16.05;;
22250;SDS011;59348;52.158;5.588;2023-04-09T10:16:21;22.15;;;16.60;;
22250;SDS011;59348;52.158;5.588;2023-04-09T10:18:50;19.80;;;15.23;;
22250;SDS011;59348;52.158;5.588;2023-04-09T10:21:21;19.80;;;14.23;;
22250;SDS011;59348;52.158;5.588;2023-04-09T10:23:50;20.17;;;14.15;;
22250;SDS011;59348;52.158;5.588;2023-04-09T10:26:18;22.08;;;15.82;;
22250;SDS011;59348;52.158;5.588;2023-04-09T10:28:46;19.98;;;14.55;;
22250;SDS011;59348;52.158;5.588;2023-04-09T10:31:13;21.48;;;15.23;;
22250;SDS011;59348;52.158;5.588;2023-04-09T10:33:40;22.10;;;14.30;;
22250;SDS011;59348;52.158;5.588;2023-04-09T10:36:11;21.45;;;13.45;;
22250;SDS011;59348;52.158;5.588;2023-04-09T10:38:39;17.33;;;13.35;;
22250;SDS011;59348;52.158;5.588;2023-04-09T10:41:07;20.20;;;14.27;;
22250;SDS011;59348;52.158;5.588;2023-04-09T10:43:35;21.15;;;14.48;;
22250;SDS011;59348;52.158;5.588;2023-04-09T10:46:04;16.85;;;13.32;;
22250;SDS011;59348;52.158;5.588;2023-04-09T10:48:31;16.92;;;12.65;;
22250;SDS011;59348;52.158;5.588;2023-04-09T10:51:01;17.35;;;12.57;;
22250;SDS011;59348;52.158;5.588;2023-04-09T10:53:31;15.75;;;12.00;;
22250;SDS011;59348;52.158;5.588;2023-04-09T10:55:58;15.25;;;11.10;;
22250;SDS011;59348;52.158;5.588;2023-04-09T10:58:26;17.20;;;11.63;;
22250;SDS011;59348;52.158;5.588;2023-04-09T11:00:53;15.68;;;12.10;;
22250;SDS011;59348;52.158;5.588;2023-04-09T11:03:22;14.40;;;11.27;;
22250;SDS011;59348;52.158;5.588;2023-04-09T11:05:50;14.40;;;11.60;;
22250;SDS011;59348;52.158;5.588;2023-04-09T11:08:18;14.68;;;11.35;;
22250;SDS011;59348;52.158;5.588;2023-04-09T11:10:47;14.52;;;11.10;;
22250;SDS011;59348;52.158;5.588;2023-04-09T11:13:15;15.45;;;11.52;;
22250;SDS011;59348;52.158;5.588;2023-04-09T11:15:44;17.20;;;12.15;;
22250;SDS011;59348;52.158;5.588;2023-04-09T11:18:13;15.05;;;11.88;;
22250;SDS011;59348;52.158;5.588;2023-04-09T11:20:40;14.32;;;10.60;;
22250;SDS011;59348;52.158;5.588;2023-04-09T11:23:07;14.77;;;11.15;;
22250;SDS011;59348;52.158;5.588;2023-04-09T11:25:36;14.80;;;10.57;;
22250;SDS011;59348;52.158;5.588;2023-04-09T11:28:05;15.38;;;11.40;;
22250;SDS011;59348;52.158;5.588;2023-04-09T11:30:32;16.77;;;12.07;;
22250;SDS011;59348;52.158;5.588;2023-04-09T11:33:00;15.70;;;12.40;;
22250;SDS011;59348;52.158;5.588;2023-04-09T11:35:27;13.65;;;11.23;;
22250;SDS011;59348;52.158;5.588;2023-04-09T11:37:55;14.70;;;11.18;;
22250;SDS011;59348;52.158;5.588;2023-04-09T11:40:22;15.68;;;11.70;;
22250;SDS011;59348;52.158;5.588;2023-04-09T11:42:50;14.60;;;11.10;;
22250;SDS011;59348;52.158;5.588;2023-04-09T11:45:19;14.40;;;11.35;;
22250;SDS011;59348;52.158;5.588;2023-04-09T11:47:47;15.45;;;11.95;;
22250;SDS011;59348;52.158;5.588;2023-04-09T11:50:15;14.98;;;11.45;;
22250;SDS011;59348;52.158;5.588;2023-04-09T11:52:43;13.25;;;11.02;;
22250;SDS011;59348;52.158;5.588;2023-04-09T11:55:10;17.17;;;12.10;;
22250;SDS011;59348;52.158;5.588;2023-04-09T11:57:38;14.15;;;11.35;;
22250;SDS011;59348;52.158;5.588;2023-04-09T12:00:08;15.45;;;12.00;;
22250;SDS011;59348;52.158;5.588;2023-04-09T12:02:38;13.52;;;10.85;;
22250;SDS011;59348;52.158;5.588;2023-04-09T12:05:07;12.82;;;10.15;;
22250;SDS011;59348;52.158;5.588;2023-04-09T12:07:34;13.60;;;9.90;;
22250;SDS011;59348;52.158;5.588;2023-04-09T12:10:03;13.10;;;10.32;;
22250;SDS011;59348;52.158;5.588;2023-04-09T12:12:37;13.00;;;10.40;;
22250;SDS011;59348;52.158;5.588;2023-04-09T12:15:06;12.73;;;10.00;;
22250;SDS011;59348;52.158;5.588;2023-04-09T12:17:35;14.98;;;11.30;;
22250;SDS011;59348;52.158;5.588;2023-04-09T12:20:04;14.45;;;11.23;;
22250;SDS011;59348;52.158;5.588;2023-04-09T12:22:33;14.70;;;10.93;;
22250;SDS011;59348;52.158;5.588;2023-04-09T12:25:05;14.10;;;10.60;;
22250;SDS011;59348;52.158;5.588;2023-04-09T12:27:33;13.05;;;10.55;;
22250;SDS011;59348;52.158;5.588;2023-04-09T12:30:00;13.25;;;9.68;;
22250;SDS011;59348;52.158;5.588;2023-04-09T12:32:27;13.73;;;9.65;;
22250;SDS011;59348;52.158;5.588;2023-04-09T12:34:54;12.13;;;8.70;;
22250;SDS011;59348;52.158;5.588;2023-04-09T12:37:23;11.38;;;8.80;;
22250;SDS011;59348;52.158;5.588;2023-04-09T12:39:50;10.75;;;8.68;;
22250;SDS011;59348;52.158;5.588;2023-04-09T12:42:17;11.25;;;8.95;;
22250;SDS011;59348;52.158;5.588;2023-04-09T12:44:45;12.15;;;9.55;;
22250;SDS011;59348;52.158;5.588;2023-04-09T12:47:12;9.55;;;8.55;;
22250;SDS011;59348;52.158;5.588;2023-04-09T12:49:39;11.27;;;8.95;;
22250;SDS011;59348;52.158;5.588;2023-04-09T12:52:09;13.07;;;8.85;;
22250;SDS011;59348;52.158;5.588;2023-04-09T12:54:37;11.38;;;9.07;;
22250;SDS011;59348;52.158;5.588;2023-04-09T12:57:05;12.77;;;9.80;;
22250;SDS011;59348;52.158;5.588;2023-04-09T12:59:32;14.95;;;10.77;;
22250;SDS011;59348;52.158;5.588;2023-04-09T13:01:59;15.98;;;10.85;;
22250;SDS011;59348;52.158;5.588;2023-04-09T13:04:27;11.57;;;9.95;;
22250;SDS011;59348;52.158;5.588;2023-04-09T13:06:55;10.02;;;8.32;;
22250;SDS011;59348;52.158;5.588;2023-04-09T13:09:22;11.05;;;8.57;;
22250;SDS011;59348;52.158;5.588;2023-04-09T13:11:51;10.73;;;8.60;;
22250;SDS011;59348;52.158;5.588;2023-04-09T13:14:18;13.95;;;8.93;;
22250;SDS011;59348;52.158;5.588;2023-04-09T13:16:45;11.75;;;9.52;;
22250;SDS011;59348;52.158;5.588;2023-04-09T13:19:14;12.32;;;9.63;;
22250;SDS011;59348;52.158;5.588;2023-04-09T13:21:41;13.63;;;9.75;;
22250;SDS011;59348;52.158;5.588;2023-04-09T13:24:08;12.27;;;9.93;;
22250;SDS011;59348;52.158;5.588;2023-04-09T13:26:36;13.43;;;9.98;;
22250;SDS011;59348;52.158;5.588;2023-04-09T13:29:04;13.02;;;10.02;;
22250;SDS011;59348;52.158;5.588;2023-04-09T13:31:32;12.18;;;9.10;;
22250;SDS011;59348;52.158;5.588;2023-04-09T13:34:00;14.77;;;9.93;;
22250;SDS011;59348;52.158;5.588;2023-04-09T13:36:27;12.10;;;8.82;;
22250;SDS011;59348;52.158;5.588;2023-04-09T13:38:55;12.73;;;10.02;;
22250;SDS011;59348;52.158;5.588;2023-04-09T13:41:28;13.52;;;9.98;;
22250;SDS011;59348;52.158;5.588;2023-04-09T13:43:55;10.98;;;8.93;;
22250;SDS011;59348;52.158;5.588;2023-04-09T13:46:24;9.68;;;8.45;;
22250;SDS011;59348;52.158;5.588;2023-04-09T13:48:51;12.07;;;8.55;;
22250;SDS011;59348;52.158;5.588;2023-04-09T13:51:19;10.32;;;8.38;;
22250;SDS011;59348;52.158;5.588;2023-04-09T13:53:47;9.93;;;8.38;;
22250;SDS011;59348;52.158;5.588;2023-04-09T13:56:14;10.88;;;8.75;;
22250;SDS011;59348;52.158;5.588;2023-04-09T13:58:41;11.85;;;9.18;;
22250;SDS011;59348;52.158;5.588;2023-04-09T14:01:08;12.48;;;9.05;;
22250;SDS011;59348;52.158;5.588;2023-04-09T14:03:37;12.18;;;9.40;;
22250;SDS011;59348;52.158;5.588;2023-04-09T14:06:05;10.00;;;8.23;;
22250;SDS011;59348;52.158;5.588;2023-04-09T14:08:32;13.10;;;7.63;;
22250;SDS011;59348;52.158;5.588;2023-04-09T14:11:00;8.55;;;7.15;;
22250;SDS011;59348;52.158;5.588;2023-04-09T14:13:27;8.27;;;7.35;;
22250;SDS011;59348;52.158;5.588;2023-04-09T14:15:54;10.80;;;8.43;;
22250;SDS011;59348;52.158;5.588;2023-04-09T14:18:21;12.00;;;9.02;;
22250;SDS011;59348;52.158;5.588;2023-04-09T14:20:50;10.75;;;9.27;;
22250;SDS011;59348;52.158;5.588;2023-04-09T14:23:17;11.73;;;9.32;;
22250;SDS011;59348;52.158;5.588;2023-04-09T14:25:44;10.88;;;9.05;;
22250;SDS011;59348;52.158;5.588;2023-04-09T14:28:12;14.00;;;9.82;;
22250;SDS011;59348;52.158;5.588;2023-04-09T14:30:39;16.13;;;10.73;;